createdAt,value
2022-10-19T00:01:09.537Z,4.83
2022-10-19T00:03:37.702Z,3.40
2022-10-19T00:06:12.310Z,3.70
2022-10-19T00:08:39.816Z,3.03
2022-10-19T00:11:08.969Z,3.47
2022-10-19T00:13:37.161Z,3.70
2022-10-19T00:16:11.413Z,3.03
2022-10-19T00:18:39.471Z,3.10
2022-10-19T00:21:08.832Z,3.30
2022-10-19T00:23:36.776Z,3.30
2022-10-19T00:26:04.558Z,5.00
2022-10-19T00:28:33.598Z,3.60
2022-10-19T00:31:03.673Z,4.20
2022-10-19T00:33:31.200Z,6.60
2022-10-19T00:35:58.697Z,5.40
2022-10-19T00:38:26.401Z,5.50
2022-10-19T00:40:54.036Z,5.17
2022-10-19T00:43:23.796Z,4.87
2022-10-19T00:45:53.490Z,5.27
2022-10-19T00:48:25.654Z,5.17
2022-10-19T00:50:53.803Z,4.53
2022-10-19T00:53:21.482Z,4.73
2022-10-19T00:55:48.964Z,4.73
2022-10-19T00:58:16.645Z,4.10
2022-10-19T01:00:44.338Z,3.93
2022-10-19T01:03:13.596Z,4.53
2022-10-19T01:05:41.970Z,3.80
2022-10-19T01:08:09.900Z,3.83
2022-10-19T01:10:46.914Z,3.70
2022-10-19T01:13:24.782Z,3.40
2022-10-19T01:15:58.711Z,3.90
2022-10-19T01:18:35.506Z,3.60
2022-10-19T01:21:24.411Z,4.10
2022-10-19T01:24:35.886Z,3.70
2022-10-19T01:27:23.052Z,3.00
2022-10-19T01:30:00.696Z,3.50
2022-10-19T01:32:33.729Z,3.53
2022-10-19T01:35:07.472Z,3.47
2022-10-19T01:37:37.374Z,3.70
2022-10-19T01:40:08.973Z,3.57
2022-10-19T01:42:43.167Z,4.03
2022-10-19T01:45:15.390Z,3.60
2022-10-19T01:47:47.325Z,4.17
2022-10-19T01:50:17.821Z,3.80
2022-10-19T01:52:45.619Z,3.30
2022-10-19T01:55:15.342Z,3.53
2022-10-19T01:57:46.959Z,3.10
2022-10-19T02:00:17.685Z,3.47
2022-10-19T02:02:48.513Z,3.40
2022-10-19T02:05:18.255Z,3.50
2022-10-19T02:07:50.763Z,3.83
2022-10-19T02:10:18.652Z,3.33
2022-10-19T02:12:46.363Z,3.40
2022-10-19T02:15:23.637Z,3.57
2022-10-19T02:17:53.155Z,3.97
2022-10-19T02:20:21.264Z,3.37
2022-10-19T02:22:48.745Z,3.63
2022-10-19T02:25:16.632Z,3.57
2022-10-19T02:27:44.232Z,3.30
2022-10-19T02:30:12.233Z,3.90
2022-10-19T02:32:41.129Z,3.40
2022-10-19T02:35:09.401Z,3.70
2022-10-19T02:40:10.397Z,3.50
2022-10-19T02:42:41.238Z,3.43
2022-10-19T02:45:12.617Z,3.30
2022-10-19T02:47:44.562Z,3.17
2022-10-19T02:50:12.759Z,3.70
2022-10-19T02:52:40.561Z,3.40
2022-10-19T02:55:09.242Z,3.10
2022-10-19T02:57:37.257Z,2.97
2022-10-19T03:00:06.357Z,3.43
2022-10-19T03:02:33.818Z,4.20
2022-10-19T03:05:02.746Z,3.53
2022-10-19T03:07:30.436Z,3.57
2022-10-19T03:09:57.904Z,3.50
2022-10-19T03:12:25.448Z,3.77
2022-10-19T03:14:52.944Z,3.60
2022-10-19T03:17:20.717Z,3.30
2022-10-19T03:19:48.282Z,3.80
2022-10-19T03:22:17.114Z,3.50
2022-10-19T03:24:44.591Z,3.57
2022-10-19T03:27:12.110Z,3.10
2022-10-19T03:29:39.616Z,3.43
2022-10-19T03:32:07.101Z,3.40
2022-10-19T03:34:34.584Z,3.43
2022-10-19T03:37:02.049Z,3.40
2022-10-19T03:39:30.850Z,3.40
2022-10-19T03:41:58.320Z,3.60
2022-10-19T03:44:25.801Z,4.03
2022-10-19T03:46:53.314Z,3.30
2022-10-19T03:49:20.854Z,4.03
2022-10-19T03:51:48.493Z,3.80
2022-10-19T03:54:17.176Z,3.60
2022-10-19T03:56:46.347Z,4.00
2022-10-19T03:59:15.086Z,3.57
2022-10-19T04:01:44.592Z,3.43
2022-10-19T04:04:14.120Z,3.20
2022-10-19T04:06:43.314Z,3.80
2022-10-19T04:09:13.415Z,3.30
2022-10-19T04:11:41.069Z,3.57
2022-10-19T04:14:11.091Z,3.57
2022-10-19T04:16:38.546Z,3.60
2022-10-19T04:19:06.033Z,3.50
2022-10-19T04:21:34.934Z,3.60
2022-10-19T04:24:03.747Z,3.83
2022-10-19T04:26:31.350Z,3.50
2022-10-19T04:28:59.305Z,3.03
2022-10-19T04:31:28.880Z,4.63
2022-10-19T04:33:56.757Z,4.10
2022-10-19T04:36:24.685Z,3.90
2022-10-19T04:38:52.480Z,4.03
2022-10-19T04:41:21.517Z,3.40
2022-10-19T04:43:49.258Z,3.63
2022-10-19T04:46:19.229Z,3.47
2022-10-19T04:48:50.625Z,3.87
2022-10-19T04:51:19.735Z,3.77
2022-10-19T04:53:47.658Z,3.60
2022-10-19T04:56:17.342Z,4.07
2022-10-19T04:58:44.948Z,5.50
2022-10-19T05:01:13.706Z,6.77
2022-10-19T05:03:41.608Z,8.50
2022-10-19T05:06:10.945Z,7.57
2022-10-19T05:08:38.930Z,9.07
2022-10-19T05:11:08.082Z,9.17
2022-10-19T05:13:36.217Z,10.13
2022-10-19T05:16:05.914Z,10.30
2022-10-19T05:18:34.035Z,10.50
2022-10-19T05:21:03.131Z,10.67
2022-10-19T05:26:06.241Z,9.83
2022-10-19T05:28:34.439Z,9.93
2022-10-19T05:31:10.091Z,8.93
2022-10-19T05:33:38.824Z,10.53
2022-10-19T05:36:14.957Z,9.77
2022-10-19T05:38:44.111Z,9.90
2022-10-19T05:41:11.813Z,10.00
2022-10-19T05:43:40.341Z,9.63
2022-10-19T05:46:09.285Z,10.00
2022-10-19T05:48:37.288Z,10.13
2022-10-19T05:51:06.661Z,10.50
2022-10-19T05:53:35.491Z,9.93
2022-10-19T05:56:07.435Z,10.70
2022-10-19T05:58:35.728Z,9.03
2022-10-19T06:01:03.952Z,10.23
2022-10-19T06:03:31.590Z,9.20
2022-10-19T06:05:59.454Z,8.80
2022-10-19T06:08:27.106Z,9.73
2022-10-19T06:10:54.598Z,8.93
2022-10-19T06:13:23.402Z,10.00
2022-10-19T06:15:52.043Z,9.07
2022-10-19T06:18:19.513Z,8.57
2022-10-19T06:20:47.227Z,9.50
2022-10-19T06:23:14.692Z,9.50
2022-10-19T06:25:42.561Z,9.33
2022-10-19T06:28:10.480Z,9.70
2022-10-19T06:30:41.137Z,9.70
2022-10-19T06:33:08.967Z,9.77
2022-10-19T06:35:36.632Z,9.70
2022-10-19T06:38:04.141Z,10.23
2022-10-19T06:40:31.699Z,8.37
2022-10-19T06:42:59.225Z,8.40
2022-10-19T06:45:26.704Z,7.60
2022-10-19T06:47:55.533Z,6.53
2022-10-19T06:50:22.986Z,7.00
2022-10-19T06:52:50.457Z,6.60
2022-10-19T06:55:18.257Z,6.63
2022-10-19T06:57:45.829Z,6.83
2022-10-19T07:00:14.367Z,5.60
2022-10-19T07:02:41.866Z,5.40
2022-10-19T07:05:10.958Z,5.87
2022-10-19T07:07:38.676Z,5.07
2022-10-19T07:10:07.180Z,6.13
2022-10-19T07:12:34.662Z,5.07
2022-10-19T07:15:02.093Z,5.80
2022-10-19T07:17:29.608Z,6.07
2022-10-19T07:19:57.084Z,6.50
2022-10-19T07:22:28.284Z,6.60
2022-10-19T07:24:55.933Z,6.50
2022-10-19T07:27:23.402Z,6.50
2022-10-19T07:29:51.129Z,6.70
2022-10-19T07:32:18.630Z,6.40
2022-10-19T07:34:46.148Z,6.20
2022-10-19T07:37:13.606Z,6.23
2022-10-19T07:39:42.446Z,7.03
2022-10-19T07:42:10.112Z,6.63
2022-10-19T07:44:37.793Z,7.40
2022-10-19T07:47:06.092Z,7.23
2022-10-19T07:49:33.643Z,7.47
2022-10-19T07:52:01.126Z,7.50
2022-10-19T07:54:28.720Z,7.13
2022-10-19T07:56:57.529Z,7.80
2022-10-19T07:59:25.001Z,7.27
2022-10-19T08:01:54.259Z,7.03
2022-10-19T08:07:09.334Z,7.10
2022-10-19T08:09:53.905Z,6.83
2022-10-19T08:12:23.226Z,6.83
2022-10-19T08:14:50.705Z,6.30
2022-10-19T08:17:18.206Z,7.40
2022-10-19T08:19:45.884Z,7.27
2022-10-19T08:22:13.526Z,7.30
2022-10-19T08:24:40.995Z,7.27
2022-10-19T08:27:08.714Z,6.77
2022-10-19T08:29:37.653Z,7.07
2022-10-19T08:32:05.356Z,6.50
2022-10-19T08:34:33.212Z,6.60
2022-10-19T08:37:06.793Z,5.93
2022-10-19T08:39:42.469Z,6.30
2022-10-19T08:42:15.411Z,5.90
2022-10-19T08:44:57.037Z,5.90
2022-10-19T08:47:35.399Z,6.17
2022-10-19T08:50:04.046Z,5.47
2022-10-19T08:52:34.743Z,5.47
2022-10-19T08:55:05.990Z,5.90
2022-10-19T08:57:41.078Z,5.47
2022-10-19T09:00:15.310Z,3.93
2022-10-19T09:02:55.437Z,4.10
2022-10-19T09:05:31.373Z,3.80
2022-10-19T09:07:59.221Z,3.47
2022-10-19T09:10:29.275Z,3.80
2022-10-19T09:13:00.182Z,2.93
2022-10-19T09:15:35.422Z,3.27
2022-10-19T09:18:03.225Z,3.33
2022-10-19T09:20:34.627Z,3.70
2022-10-19T09:23:08.650Z,3.67
2022-10-19T09:25:39.449Z,3.30
2022-10-19T09:28:15.891Z,3.27
2022-10-19T09:30:45.694Z,3.03
2022-10-19T09:33:17.343Z,3.33
2022-10-19T09:35:46.313Z,3.10
2022-10-19T09:38:16.633Z,3.43
2022-10-19T09:40:45.206Z,2.70
2022-10-19T09:43:20.813Z,3.10
2022-10-19T09:45:52.461Z,2.97
2022-10-19T09:48:26.399Z,3.07
2022-10-19T09:50:57.542Z,2.57
2022-10-19T09:53:26.571Z,2.80
2022-10-19T09:56:01.421Z,3.03
2022-10-19T09:58:33.036Z,2.60
2022-10-19T10:01:03.255Z,2.63
2022-10-19T10:03:32.858Z,3.00
2022-10-19T10:06:04.292Z,2.73
2022-10-19T10:08:34.538Z,2.50
2022-10-19T10:11:08.417Z,2.40
2022-10-19T10:19:18.804Z,2.70
2022-10-19T10:21:50.981Z,2.27
2022-10-19T10:24:20.257Z,2.77
2022-10-19T10:26:49.845Z,2.40
2022-10-19T10:29:19.953Z,2.70
2022-10-19T10:31:51.879Z,2.57
2022-10-19T10:34:37.519Z,2.57
2022-10-19T10:37:19.196Z,2.20
2022-10-19T10:39:46.686Z,2.60
2022-10-19T10:42:19.120Z,2.60
2022-10-19T10:44:49.280Z,2.30
2022-10-19T10:47:20.383Z,1.90
2022-10-19T10:49:54.462Z,1.77
2022-10-19T10:52:22.080Z,1.80
2022-10-19T10:54:59.537Z,2.37
2022-10-19T10:57:28.405Z,2.00
2022-10-19T10:59:59.974Z,2.40
2022-10-19T11:02:34.703Z,2.37
2022-10-19T11:05:04.848Z,2.40
2022-10-19T11:07:34.088Z,1.80
2022-10-19T11:10:08.781Z,2.17
2022-10-19T11:12:39.493Z,1.93
2022-10-19T11:15:17.379Z,2.23
2022-10-19T11:17:54.897Z,1.80
2022-10-19T11:20:23.504Z,2.37
2022-10-19T11:22:56.471Z,1.80
2022-10-19T11:25:31.085Z,1.67
2022-10-19T11:28:10.918Z,2.03
2022-10-19T11:30:45.328Z,1.87
2022-10-19T11:33:21.784Z,1.80
2022-10-19T11:35:52.889Z,1.90
2022-10-19T11:38:36.661Z,1.80
2022-10-19T11:41:19.006Z,1.60
2022-10-19T11:43:57.645Z,1.80
2022-10-19T11:46:26.974Z,1.60
2022-10-19T11:49:07.357Z,1.83
2022-10-19T11:51:39.681Z,1.67
2022-10-19T11:54:16.334Z,1.70
2022-10-19T11:57:03.173Z,1.60
2022-10-19T11:59:43.995Z,1.43
2022-10-19T12:02:23.940Z,1.57
2022-10-19T12:04:55.540Z,1.73
2022-10-19T12:07:36.701Z,1.47
2022-10-19T12:10:11.554Z,1.40
2022-10-19T12:12:40.371Z,1.50
2022-10-19T12:15:19.579Z,1.50
2022-10-19T12:17:49.439Z,1.23
2022-10-19T12:20:23.288Z,1.80
2022-10-19T12:22:50.995Z,1.20
2022-10-19T12:25:19.777Z,1.40
2022-10-19T12:27:49.031Z,1.70
2022-10-19T12:30:19.047Z,1.40
2022-10-19T12:32:54.488Z,1.67
2022-10-19T12:35:36.946Z,1.10
2022-10-19T12:38:08.023Z,1.20
2022-10-19T12:40:39.483Z,1.30
2022-10-19T12:43:11.034Z,1.13
2022-10-19T12:45:41.353Z,1.10
2022-10-19T12:48:24.362Z,1.07
2022-10-19T12:51:11.946Z,1.43
2022-10-19T12:53:41.168Z,1.17
2022-10-19T12:56:13.785Z,1.00
2022-10-19T12:58:48.280Z,1.00
2022-10-19T13:01:19.262Z,1.10
2022-10-19T13:03:46.986Z,1.07
2022-10-19T13:06:17.820Z,0.90
2022-10-19T13:08:48.957Z,0.90
2022-10-19T13:11:16.685Z,0.87
2022-10-19T13:13:56.885Z,0.90
2022-10-19T13:16:34.752Z,0.60
2022-10-19T13:19:03.663Z,0.93
2022-10-19T13:21:50.582Z,0.90
2022-10-19T13:24:27.925Z,1.00
2022-10-19T13:27:39.309Z,1.00
2022-10-19T13:30:46.025Z,0.90
2022-10-19T13:33:49.688Z,1.00
2022-10-19T13:36:17.673Z,0.90
2022-10-19T13:38:46.364Z,0.93
2022-10-19T13:41:21.501Z,1.10
2022-10-19T13:43:56.496Z,0.90
2022-10-19T13:46:35.574Z,0.90
2022-10-19T13:49:39.358Z,0.90
2022-10-19T13:52:26.077Z,1.10
2022-10-19T13:55:19.338Z,1.37
2022-10-19T13:57:55.331Z,1.33
2022-10-19T14:00:25.456Z,1.27
2022-10-19T14:03:06.652Z,1.10
2022-10-19T14:05:52.402Z,0.83
2022-10-19T14:08:35.548Z,0.93
2022-10-19T14:11:04.736Z,1.17
2022-10-19T14:13:32.554Z,1.10
2022-10-19T14:16:02.813Z,1.30
2022-10-19T14:18:31.764Z,1.20
2022-10-19T14:21:02.585Z,1.30
2022-10-19T14:23:31.285Z,1.10
2022-10-19T14:26:00.660Z,0.97
2022-10-19T14:28:28.848Z,1.17
2022-10-19T14:30:58.408Z,1.10
2022-10-19T14:33:27.075Z,1.33
2022-10-19T14:35:55.184Z,1.27
2022-10-19T14:38:28.373Z,1.20
2022-10-19T14:40:56.538Z,1.17
2022-10-19T14:43:25.937Z,1.17
2022-10-19T14:46:20.593Z,1.30
2022-10-19T14:48:49.502Z,1.30
2022-10-19T14:51:27.214Z,1.23
2022-10-19T14:53:58.642Z,1.30
2022-10-19T14:56:29.786Z,1.20
2022-10-19T14:58:59.640Z,1.10
2022-10-19T15:01:27.191Z,1.03
2022-10-19T15:03:54.816Z,1.50
2022-10-19T15:06:24.069Z,1.53
2022-10-19T15:11:26.287Z,1.17
2022-10-19T15:13:59.670Z,1.00
2022-10-19T15:16:32.745Z,1.30
2022-10-19T15:19:04.144Z,1.40
2022-10-19T15:21:33.559Z,1.10
2022-10-19T15:24:09.742Z,1.30
2022-10-19T15:26:38.613Z,1.30
2022-10-19T15:29:12.619Z,1.03
2022-10-19T15:31:40.162Z,1.20
2022-10-19T15:34:23.154Z,1.63
2022-10-19T15:37:01.190Z,1.50
2022-10-19T15:39:39.749Z,1.43
2022-10-19T15:42:24.845Z,1.20
2022-10-19T15:44:52.335Z,1.50
2022-10-19T15:47:23.028Z,1.60
2022-10-19T15:49:56.558Z,2.10
2022-10-19T15:52:25.416Z,1.53
2022-10-19T15:54:53.812Z,1.57
2022-10-19T15:57:29.298Z,1.67
2022-10-19T15:59:57.750Z,1.90
2022-10-19T16:02:25.945Z,2.20
2022-10-19T16:04:53.917Z,2.00
2022-10-19T16:07:26.609Z,1.73
2022-10-19T16:09:54.634Z,1.80
2022-10-19T16:12:23.828Z,1.73
2022-10-19T16:14:52.770Z,2.43
2022-10-19T16:17:20.305Z,2.63
2022-10-19T16:19:47.944Z,3.47
2022-10-19T16:22:16.150Z,3.60
2022-10-19T16:24:43.969Z,2.70
2022-10-19T16:27:14.892Z,1.90
2022-10-19T16:29:42.777Z,2.20
2022-10-19T16:32:11.591Z,1.80
2022-10-19T16:34:39.066Z,2.30
2022-10-19T16:37:07.335Z,2.90
2022-10-19T16:39:35.425Z,3.70
2022-10-19T16:42:02.970Z,3.10
2022-10-19T16:44:30.495Z,3.07
2022-10-19T16:46:58.480Z,3.00
2022-10-19T16:49:27.438Z,3.07
2022-10-19T16:51:57.431Z,3.13
2022-10-19T16:54:26.457Z,4.33
2022-10-19T16:56:55.466Z,3.70
2022-10-19T16:59:23.040Z,3.53
2022-10-19T17:01:50.877Z,3.17
2022-10-19T17:04:18.873Z,2.80
2022-10-19T17:06:48.660Z,3.40
2022-10-19T17:12:03.806Z,3.70
2022-10-19T17:14:31.254Z,2.90
2022-10-19T17:16:59.149Z,3.07
2022-10-19T17:19:26.900Z,3.27
2022-10-19T17:21:57.565Z,3.20
2022-10-19T17:24:25.246Z,2.47
2022-10-19T17:26:53.857Z,2.30
2022-10-19T17:29:22.157Z,3.07
2022-10-19T17:31:50.762Z,2.80
2022-10-19T17:34:19.235Z,3.27
2022-10-19T17:36:47.986Z,3.23
2022-10-19T17:39:18.841Z,4.03
2022-10-19T17:41:47.615Z,4.13
2022-10-19T17:44:15.746Z,4.30
2022-10-19T17:46:44.209Z,3.53
2022-10-19T17:49:12.634Z,3.40
2022-10-19T17:51:40.982Z,3.60
2022-10-19T17:54:10.197Z,3.63
2022-10-19T17:56:39.422Z,3.73
2022-10-19T17:59:09.085Z,2.70
2022-10-19T18:01:38.476Z,2.47
2022-10-19T18:04:06.398Z,2.67
2022-10-19T18:06:35.565Z,2.90
2022-10-19T18:09:05.521Z,2.67
2022-10-19T18:11:35.938Z,2.47
2022-10-19T18:14:05.995Z,2.33
2022-10-19T18:16:35.579Z,2.67
2022-10-19T18:19:04.266Z,2.57
2022-10-19T18:21:34.809Z,2.37
2022-10-19T18:24:03.498Z,2.00
2022-10-19T18:26:33.234Z,2.40
2022-10-19T18:29:01.969Z,2.83
2022-10-19T18:31:31.811Z,2.30
2022-10-19T18:34:01.237Z,2.33
2022-10-19T18:36:28.924Z,2.33
2022-10-19T18:38:58.538Z,2.40
2022-10-19T18:41:26.588Z,2.50
2022-10-19T18:43:55.521Z,2.60
2022-10-19T18:46:24.524Z,2.40
2022-10-19T18:48:53.568Z,2.53
2022-10-19T18:51:22.308Z,2.40
2022-10-19T18:53:50.288Z,2.33
2022-10-19T18:56:19.570Z,2.73
2022-10-19T18:58:47.629Z,2.40
2022-10-19T19:01:16.809Z,2.60
2022-10-19T19:03:46.913Z,2.10
2022-10-19T19:06:18.033Z,2.80
2022-10-19T19:08:45.749Z,2.40
2022-10-19T19:11:14.896Z,2.57
2022-10-19T19:13:43.129Z,2.90
2022-10-19T19:16:10.829Z,2.73
2022-10-19T19:18:38.324Z,2.70
2022-10-19T19:21:12.501Z,2.80
2022-10-19T19:23:41.399Z,2.43
2022-10-19T19:26:10.216Z,2.73
2022-10-19T19:28:41.465Z,2.30
2022-10-19T19:31:11.409Z,2.67
2022-10-19T19:33:39.572Z,2.80
2022-10-19T19:36:08.773Z,3.20
2022-10-19T19:38:37.132Z,2.83
2022-10-19T19:41:06.540Z,2.80
2022-10-19T19:43:36.845Z,3.40
2022-10-19T19:46:08.976Z,3.40
2022-10-19T19:48:36.733Z,3.10
2022-10-19T19:51:04.525Z,2.83
2022-10-19T19:53:32.219Z,2.70
2022-10-19T19:55:59.704Z,2.80
2022-10-19T19:58:28.727Z,3.40
2022-10-19T20:00:56.254Z,2.97
2022-10-19T20:03:23.892Z,3.07
2022-10-19T20:05:51.540Z,3.20
2022-10-19T20:08:19.103Z,2.90
2022-10-19T20:10:46.928Z,3.00
2022-10-19T20:13:14.545Z,2.40
2022-10-19T20:15:43.412Z,3.00
2022-10-19T20:18:11.587Z,3.40
2022-10-19T20:20:42.156Z,3.53
2022-10-19T20:23:09.767Z,3.63
2022-10-19T20:25:37.586Z,3.53
2022-10-19T20:28:05.581Z,3.13
2022-10-19T20:30:33.161Z,3.33
2022-10-19T20:33:01.999Z,3.40
2022-10-19T20:35:29.469Z,3.23
2022-10-19T20:37:58.447Z,3.07
2022-10-19T20:40:26.110Z,3.10
2022-10-19T20:42:53.748Z,3.00
2022-10-19T20:45:21.726Z,2.90
2022-10-19T20:47:49.282Z,3.20
2022-10-19T20:50:20.670Z,3.13
2022-10-19T20:52:49.477Z,3.10
2022-10-19T20:55:17.142Z,3.13
2022-10-19T20:57:44.681Z,3.30
2022-10-19T21:00:13.414Z,3.10
2022-10-19T21:02:40.986Z,3.73
2022-10-19T21:05:09.688Z,3.47
2022-10-19T21:07:38.766Z,2.93
2022-10-19T21:10:07.093Z,3.30
2022-10-19T21:12:34.829Z,3.10
2022-10-19T21:15:02.496Z,3.13
2022-10-19T21:20:02.662Z,3.20
2022-10-19T21:22:32.297Z,3.20
2022-10-19T21:25:03.319Z,3.43
2022-10-19T21:27:30.836Z,2.90
2022-10-19T21:29:58.343Z,3.60
2022-10-19T21:32:26.337Z,2.93
2022-10-19T21:34:53.881Z,3.13
2022-10-19T21:37:21.433Z,2.63
2022-10-19T21:39:49.146Z,3.97
2022-10-19T21:42:17.934Z,3.17
2022-10-19T21:44:45.510Z,3.33
2022-10-19T21:47:13.024Z,3.17
2022-10-19T21:49:40.540Z,3.30
2022-10-19T21:52:09.735Z,3.43
2022-10-19T21:54:39.171Z,3.90
2022-10-19T21:57:06.708Z,3.80
2022-10-19T21:59:35.568Z,3.60
2022-10-19T22:02:03.136Z,3.60
2022-10-19T22:04:30.730Z,3.90
2022-10-19T22:06:59.454Z,3.77
2022-10-19T22:09:27.006Z,4.17
2022-10-19T22:11:54.475Z,4.10
2022-10-19T22:14:22.030Z,3.93
2022-10-19T22:16:50.990Z,4.20
2022-10-19T22:19:18.752Z,4.60
2022-10-19T22:21:46.334Z,4.13
2022-10-19T22:24:15.402Z,4.30
2022-10-19T22:26:44.793Z,3.80
2022-10-19T22:29:12.521Z,4.10
2022-10-19T22:31:40.252Z,3.90
2022-10-19T22:34:12.681Z,4.53
2022-10-19T22:36:40.243Z,4.30
2022-10-19T22:39:08.081Z,4.30
2022-10-19T22:41:35.632Z,4.77
2022-10-19T22:44:03.430Z,4.23
2022-10-19T22:46:31.017Z,4.30
2022-10-19T22:48:59.081Z,4.50
2022-10-19T22:51:28.125Z,4.37
2022-10-19T22:53:55.658Z,4.40
2022-10-19T22:56:23.189Z,4.37
2022-10-19T22:58:50.720Z,5.03
2022-10-19T23:01:18.812Z,4.43
2022-10-19T23:03:46.352Z,5.20
2022-10-19T23:06:15.332Z,4.50
2022-10-19T23:08:44.882Z,4.57
2022-10-19T23:11:13.195Z,4.93
2022-10-19T23:13:41.135Z,4.53
2022-10-19T23:16:09.759Z,4.97
2022-10-19T23:18:38.844Z,5.20
2022-10-19T23:21:08.916Z,5.40
2022-10-19T23:23:36.958Z,5.57
2022-10-19T23:26:07.854Z,5.33
2022-10-19T23:28:36.864Z,6.37
2022-10-19T23:31:06.310Z,6.73
2022-10-19T23:33:34.272Z,5.43
2022-10-19T23:36:06.528Z,6.17
2022-10-19T23:38:34.026Z,5.50
2022-10-19T23:41:01.801Z,5.53
2022-10-19T23:43:31.124Z,6.80
2022-10-19T23:45:58.724Z,5.97
2022-10-19T23:48:26.431Z,5.27
2022-10-19T23:50:58.680Z,5.50
2022-10-19T23:53:26.426Z,5.30
2022-10-19T23:55:59.301Z,5.83
2022-10-19T23:58:27.161Z,5.27
